Carmel Valley, California
Current Conditions -  °F | °C
As of 9:54 PM on Saturday 25 Oct 2014 (Local Time) from KMRY Reporting Station
Overcast Overcast  
Wind Chill: 60°   Ceiling: 3100
Heat Index: 60°   Visibility: 10mi
Dew Point: 54°   Wind: 0mph
Humidity: 80%   Direction: NA
Pressure: 30.14"   Gusts: NA
Location:  36.48°N, 121.73°W
Report Text: KMRY 260454Z AUTO 00000KT 10SM FEW018 SCT023 OVC031 16/12 A3014 RMK AO2 SLP217 T01560122
Loading
Personal Weather Stations






























Interactive Weather Map
Tropical Storm Tracking
New forecast layout! Learn more

10-Day Weather Forecast

Advertisements
Track Severe Weather on mobile